Time;durP1;ratioP1;P1;durP2;ratioP2;P2;SDS_P1;SDS_P2;PMS_P1;PMS_P2;Temp;Humidity;BMP_temperature;BMP_pressure;BME280_temperature;BME280_humidity;BME280_pressure;Samples;Min_cycle;Max_cycle;Signal;HPM_P1;HPM_P2
2024/01/05 00:02:02;;;;;;;;;19.00;18.00;;;;;8.17;48.67;98900.03;5070377;28;8868;-79
2024/01/05 00:04:31;;;;;;;;;22.80;19.80;;;;;8.23;48.54;98902.50;5052441;28;8827;-78
2024/01/05 00:07:00;;;;;;;;;22.20;20.80;;;;;8.11;48.15;98911.47;5053305;28;8850;-79
2024/01/05 00:09:29;;;;;;;;;19.60;17.60;;;;;8.10;48.06;98917.63;5052426;28;8943;-78
2024/01/05 00:11:59;;;;;;;;;18.80;18.80;;;;;8.21;49.27;98909.53;5071472;28;8866;-79
2024/01/05 00:14:32;;;;;;;;;18.00;17.00;;;;;8.24;49.53;98909.47;5071406;28;8881;-77
2024/01/05 00:17:01;;;;;;;;;19.20;18.20;;;;;8.24;48.29;98910.31;5070289;28;8862;-78
2024/01/05 00:19:30;;;;;;;;;15.20;15.00;;;;;8.19;49.34;98912.16;5052729;28;8858;-77
2024/01/05 00:21:59;;;;;;;;;18.20;17.20;;;;;7.99;48.87;98912.63;5078372;28;8935;-76
2024/01/05 00:24:29;;;;;;;;;19.80;19.40;;;;;7.97;49.31;98924.00;5041378;28;8884;-77
2024/01/05 00:27:00;;;;;;;;;18.00;17.60;;;;;7.92;49.94;98923.22;4999510;28;8870;-76
2024/01/05 00:29:29;;;;;;;;;16.40;16.40;;;;;7.80;50.45;98927.81;5064754;28;8862;-78
2024/01/05 00:31:58;;;;;;;;;17.60;16.20;;;;;7.86;50.50;98919.00;5048180;28;9068;-77
2024/01/05 00:34:27;;;;;;;;;15.60;15.20;;;;;8.02;50.38;98928.25;5031551;28;8968;-78
2024/01/05 00:36:56;;;;;;;;;16.20;13.40;;;;;8.18;50.75;98933.19;5048131;28;9017;-80
2024/01/05 00:39:25;;;;;;;;;15.00;14.80;;;;;8.24;51.50;98930.41;4994904;28;8836;-78
2024/01/05 00:41:54;;;;;;;;;15.40;11.60;;;;;8.35;50.72;98931.09;5011636;28;8844;-77
2024/01/05 00:44:27;;;;;;;;;14.40;12.00;;;;;8.45;50.32;98931.75;5028819;28;8929;-76
2024/01/05 00:46:55;;;;;;;;;11.00;10.20;;;;;8.46;50.34;98925.63;5034611;28;8895;-76
2024/01/05 00:49:25;;;;;;;;;11.80;11.40;;;;;8.45;50.24;98929.97;5007315;28;8970;-77
2024/01/05 00:51:54;;;;;;;;;13.00;10.40;;;;;8.41;49.00;98933.56;5033536;28;9615;-76
2024/01/05 00:54:25;;;;;;;;;11.40;11.40;;;;;8.31;49.60;98932.06;5048117;28;8861;-76
2024/01/05 00:56:54;;;;;;;;;10.40;10.00;;;;;8.40;49.47;98936.22;5068678;28;8888;-77
2024/01/05 00:59:24;;;;;;;;;11.80;8.80;;;;;8.47;50.02;98943.03;5068997;28;8858;-78
2024/01/05 01:01:54;;;;;;;;;10.00;10.00;;;;;8.56;48.96;98934.97;5070302;28;9642;-76
2024/01/05 01:04:23;;;;;;;;;11.60;11.20;;;;;8.34;48.77;98933.72;5070319;28;8854;-77
2024/01/05 01:06:52;;;;;;;;;17.20;15.20;;;;;8.34;48.76;98931.13;5069988;28;9644;-77
2024/01/05 01:09:21;;;;;;;;;15.60;13.80;;;;;8.35;49.05;98940.72;5070242;28;8851;-78
2024/01/05 01:11:51;;;;;;;;;12.20;11.20;;;;;8.07;48.98;98946.47;5069831;28;9694;-77
2024/01/05 01:14:20;;;;;;;;;13.60;11.00;;;;;8.02;49.51;98940.47;5035258;28;8939;-76
2024/01/05 01:16:51;;;;;;;;;15.20;12.60;;;;;7.93;49.21;98954.63;5069898;28;8878;-77
2024/01/05 01:19:20;;;;;;;;;11.00;11.00;;;;;8.07;49.95;98946.47;5070351;28;8877;-77
2024/01/05 01:21:49;;;;;;;;;13.60;13.60;;;;;8.07;49.72;98951.72;5068869;28;8855;-77
2024/01/05 01:24:18;;;;;;;;;10.20;10.20;;;;;8.03;49.80;98942.19;5068679;28;8870;-77
2024/01/05 01:26:47;;;;;;;;;13.60;13.60;;;;;7.83;50.58;98943.44;5069732;28;8854;-77
2024/01/05 01:29:16;;;;;;;;;12.00;12.00;;;;;7.76;51.22;98934.00;5069066;28;8854;-78
2024/01/05 01:31:44;;;;;;;;;8.80;8.80;;;;;7.81;50.44;98940.00;5070108;28;8985;-78
2024/01/05 01:34:15;;;;;;;;;10.00;9.40;;;;;7.70;50.43;98944.56;5070083;28;8846;-78
2024/01/05 01:36:44;;;;;;;;;12.00;12.00;;;;;7.67;50.68;98947.25;5073519;28;8870;-76
2024/01/05 01:39:15;;;;;;;;;17.20;12.80;;;;;7.74;51.43;98953.22;5076579;28;8866;-77
2024/01/05 01:41:44;;;;;;;;;10.60;10.60;;;;;7.96;51.71;98953.69;5056368;28;9997;-77
2024/01/05 01:44:13;;;;;;;;;12.20;10.60;;;;;8.14;50.79;98963.78;5069656;28;8839;-78
2024/01/05 01:46:42;;;;;;;;;11.40;11.00;;;;;8.14;50.92;98968.16;5069634;28;8850;-78
2024/01/05 01:49:12;;;;;;;;;12.40;12.20;;;;;8.18;50.29;98962.81;5069398;28;8897;-77
2024/01/05 01:51:45;;;;;;;;;10.80;10.80;;;;;7.99;51.11;98964.09;5068898;28;9584;-77
2024/01/05 01:54:14;;;;;;;;;8.80;8.80;;;;;7.91;52.22;98953.78;5067919;28;8880;-77
2024/01/05 01:56:45;;;;;;;;;9.80;9.00;;;;;7.80;52.61;98956.59;5069176;28;8885;-76
2024/01/05 01:59:15;;;;;;;;;8.00;8.00;;;;;7.87;52.78;98952.97;5067769;28;8973;-78
2024/01/05 02:01:44;;;;;;;;;9.20;9.20;;;;;7.77;51.92;98954.03;5051378;28;8858;-77
2024/01/05 02:04:16;;;;;;;;;12.20;10.00;;;;;7.70;52.43;98952.41;5069305;28;9632;-78
2024/01/05 02:06:47;;;;;;;;;8.20;8.00;;;;;7.74;52.59;98956.72;5067836;28;8870;-76
2024/01/05 02:09:16;;;;;;;;;10.20;9.80;;;;;7.54;52.58;98951.84;5068935;28;8874;-78
2024/01/05 02:11:45;;;;;;;;;10.80;10.00;;;;;7.52;52.80;98958.00;5051028;28;8842;-78
2024/01/05 02:14:14;;;;;;;;;9.00;9.00;;;;;7.48;53.44;98951.97;5051160;28;8854;-79
2024/01/05 02:16:43;;;;;;;;;13.00;11.00;;;;;7.77;53.07;98954.03;5068678;28;8882;-77
2024/01/05 02:19:33;;;;;;;;;11.60;10.20;;;;;7.75;52.17;98947.13;5067962;28;8850;-77
2024/01/05 02:22:03;;;;;;;;;8.60;7.60;;;;;7.74;53.03;98937.53;5070333;28;8965;-77
2024/01/05 02:24:34;;;;;;;;;7.00;7.00;;;;;7.75;52.75;98939.25;5033757;28;8888;-76
2024/01/05 02:27:03;;;;;;;;;5.40;5.40;;;;;7.57;53.67;98940.47;5067410;28;8951;-76
2024/01/05 02:29:32;;;;;;;;;9.00;8.40;;;;;7.55;53.81;98948.34;5068788;28;8842;-77
2024/01/05 02:32:01;;;;;;;;;10.40;8.60;;;;;7.72;52.55;98945.44;5067507;28;9714;-78
2024/01/05 02:34:31;;;;;;;;;8.20;8.20;;;;;7.54;53.10;98953.59;5050462;28;8839;-78
2024/01/05 02:36:59;;;;;;;;;11.20;8.20;;;;;7.52;53.07;98960.63;5068793;28;9608;-76
2024/01/05 02:39:29;;;;;;;;;9.80;5.80;;;;;7.55;52.92;98964.06;5068604;28;8861;-77
2024/01/05 02:41:59;;;;;;;;;8.00;7.00;;;;;7.53;52.63;98964.94;5029327;28;8857;-77
2024/01/05 02:44:28;;;;;;;;;8.20;7.80;;;;;7.45;53.92;98960.72;5046158;28;8951;-76
2024/01/05 02:46:57;;;;;;;;;11.60;9.80;;;;;7.47;53.66;98964.16;4996819;28;8838;-79
2024/01/05 02:49:26;;;;;;;;;9.40;9.00;;;;;7.45;53.09;98967.69;4996960;28;8858;-78
2024/01/05 02:51:55;;;;;;;;;11.20;8.40;;;;;7.66;53.14;98961.22;5045914;28;8854;-77
2024/01/05 02:54:24;;;;;;;;;8.00;8.00;;;;;7.60;53.04;98962.19;5029333;28;8858;-75
2024/01/05 02:56:53;;;;;;;;;10.00;8.60;;;;;7.72;52.05;98963.75;5029928;28;8908;-76
2024/01/05 02:59:24;;;;;;;;;7.60;7.60;;;;;7.86;51.83;98964.31;5050375;28;9708;-76
2024/01/05 03:01:53;;;;;;;;;9.60;9.60;;;;;7.76;51.65;98972.38;5051863;28;8900;-76
2024/01/05 03:04:22;;;;;;;;;7.40;5.40;;;;;7.80;50.76;98969.69;5002435;28;8842;-76
2024/01/05 03:06:50;;;;;;;;;7.40;7.00;;;;;7.74;50.88;98972.44;5017437;28;8858;-77
2024/01/05 03:09:19;;;;;;;;;6.80;6.20;;;;;7.78;50.84;98971.47;5001219;28;8972;-77
2024/01/05 03:11:48;;;;;;;;;8.80;7.00;;;;;7.75;50.95;98981.97;5001001;28;8935;-77
2024/01/05 03:14:17;;;;;;;;;5.00;5.00;;;;;7.87;50.59;98979.16;5071334;28;8854;-77
2024/01/05 03:16:48;;;;;;;;;4.00;4.00;;;;;7.86;50.10;98972.19;5037390;28;9568;-77
2024/01/05 03:19:17;;;;;;;;;7.40;5.60;;;;;7.91;49.89;98972.09;5072623;28;8866;-77
2024/01/05 03:21:46;;;;;;;;;3.40;3.40;;;;;8.00;49.32;98977.13;5049418;28;8838;-77
2024/01/05 03:24:15;;;;;;;;;5.80;4.40;;;;;7.93;49.29;98978.16;5000683;28;8948;-77
2024/01/05 03:26:44;;;;;;;;;5.60;5.00;;;;;8.05;48.99;98985.75;4999941;28;9060;-77
2024/01/05 03:29:13;;;;;;;;;7.60;4.60;;;;;8.00;50.11;98989.38;5049575;28;8918;-75
2024/01/05 03:31:44;;;;;;;;;4.80;4.80;;;;;8.17;48.73;98996.88;5049217;28;8998;-79
2024/01/05 03:34:15;;;;;;;;;3.60;3.60;;;;;8.13;49.61;98997.84;5049500;28;8858;-77
2024/01/05 03:36:44;;;;;;;;;6.20;6.20;;;;;8.07;48.54;98985.75;5032612;28;8843;-76
2024/01/05 03:39:14;;;;;;;;;8.40;7.00;;;;;7.85;50.26;98995.75;5000298;28;8888;-77
2024/01/05 03:41:43;;;;;;;;;3.20;3.20;;;;;7.90;49.66;98990.44;5048907;28;8858;-77
2024/01/05 03:44:20;;;;;;;;;7.60;7.20;;;;;7.86;49.45;98984.41;5049007;28;8919;-77
2024/01/05 03:46:50;;;;;;;;;6.00;3.40;;;;;7.85;50.45;98987.91;5048876;28;8869;-76
2024/01/05 03:49:21;;;;;;;;;4.40;3.60;;;;;7.70;50.74;98991.66;5036138;28;8846;-77
2024/01/05 03:51:50;;;;;;;;;3.80;3.80;;;;;7.66;50.02;98988.25;5051739;28;8972;-76
2024/01/05 03:54:19;;;;;;;;;4.00;4.00;;;;;7.72;49.63;98987.28;5071388;28;8842;-75
2024/01/05 03:56:48;;;;;;;;;3.60;3.60;;;;;7.63;50.04;98984.84;5052827;28;8866;-77
2024/01/05 03:59:17;;;;;;;;;5.20;4.20;;;;;7.56;50.35;98985.81;5053317;28;8996;-78
2024/01/05 04:01:47;;;;;;;;;5.00;5.00;;;;;7.50;50.46;98992.03;5071417;28;8855;-77
2024/01/05 04:04:16;;;;;;;;;2.60;2.40;;;;;7.60;50.66;98995.34;5069945;28;8846;-77
2024/01/05 04:06:47;;;;;;;;;5.00;5.00;;;;;7.65;50.70;98988.28;5086715;28;8872;-76
2024/01/05 04:09:17;;;;;;;;;4.00;4.00;;;;;7.83;49.76;98989.69;5071221;28;8908;-76
2024/01/05 04:11:46;;;;;;;;;7.80;7.60;;;;;7.69;50.62;98984.72;5071137;28;8866;-76
2024/01/05 04:14:15;;;;;;;;;5.00;5.00;;;;;7.45;51.39;98988.63;5070011;28;8932;-77
2024/01/05 04:16:44;;;;;;;;;6.20;6.20;;;;;7.48;50.65;98981.59;5071218;28;8855;-76
2024/01/05 04:19:14;;;;;;;;;4.20;4.20;;;;;7.31;50.67;98981.03;5070801;28;8858;-76
2024/01/05 04:21:43;;;;;;;;;4.40;2.80;;;;;7.42;50.49;98984.31;5071346;28;8859;-77
2024/01/05 04:24:13;;;;;;;;;4.00;4.00;;;;;7.28;51.36;98973.22;5028268;28;8843;-76
2024/01/05 04:26:42;;;;;;;;;4.00;4.00;;;;;7.54;51.30;98983.22;4989250;28;8852;-77
2024/01/05 04:29:12;;;;;;;;;5.40;4.20;;;;;7.51;51.03;98978.03;4988924;28;9652;-78
2024/01/05 04:31:41;;;;;;;;;7.00;7.00;;;;;7.51;50.68;98979.81;4972998;28;8860;-76
2024/01/05 04:34:10;;;;;;;;;6.60;5.80;;;;;7.58;50.39;98984.03;4989138;28;8852;-77
2024/01/05 04:36:39;;;;;;;;;8.00;5.00;;;;;7.48;50.54;98981.59;4972829;28;8889;-77
2024/01/05 04:39:09;;;;;;;;;7.40;5.00;;;;;7.47;50.24;98981.59;4989025;28;8902;-76
2024/01/05 04:41:40;;;;;;;;;4.20;4.20;;;;;7.66;50.82;98980.41;4957254;28;9006;-76
2024/01/05 04:44:09;;;;;;;;;7.00;5.00;;;;;7.53;49.24;98978.03;4972420;28;8867;-78
2024/01/05 04:46:37;;;;;;;;;6.00;4.40;;;;;7.47;49.61;98977.22;4956479;28;8871;-74
2024/01/05 04:49:07;;;;;;;;;7.60;6.80;;;;;7.68;49.62;98975.13;4988260;28;8945;-77
2024/01/05 04:51:35;;;;;;;;;5.80;5.80;;;;;7.76;49.46;98974.97;4972368;28;8905;-77
2024/01/05 04:54:05;;;;;;;;;6.80;4.20;;;;;7.84;49.97;98973.97;4988278;28;8874;-76
2024/01/05 04:56:33;;;;;;;;;9.80;7.40;;;;;7.91;48.86;98966.00;4972688;28;8997;-77
2024/01/05 04:59:04;;;;;;;;;10.60;9.40;;;;;7.86;48.96;98966.09;5026323;28;8858;-79
2024/01/05 05:01:33;;;;;;;;;7.80;7.80;;;;;7.90;49.14;98970.38;5012675;28;8874;-78
2024/01/05 05:04:02;;;;;;;;;6.20;4.80;;;;;7.87;48.79;98971.31;5070244;28;8841;-76
2024/01/05 05:06:31;;;;;;;;;7.20;7.20;;;;;7.95;49.17;98962.41;5070042;28;8842;-76
2024/01/05 05:09:01;;;;;;;;;5.40;5.40;;;;;7.88;48.55;98967.78;5070045;28;8854;-76
2024/01/05 05:11:30;;;;;;;;;9.80;8.00;;;;;7.93;48.68;98969.44;5070356;28;8953;-78
2024/01/05 05:13:59;;;;;;;;;7.60;5.00;;;;;7.85;47.79;98966.97;5070917;28;8858;-77
2024/01/05 05:16:29;;;;;;;;;7.20;7.20;;;;;7.66;48.89;98966.44;5028386;28;8872;-76
2024/01/05 05:18:58;;;;;;;;;4.80;4.20;;;;;7.50;49.10;98978.09;5028117;28;8893;-76
2024/01/05 05:21:28;;;;;;;;;4.00;4.00;;;;;7.53;49.49;98975.41;5028105;28;8861;-77
2024/01/05 05:23:57;;;;;;;;;8.40;7.60;;;;;7.75;49.19;98976.75;4979289;28;8958;-76
2024/01/05 05:26:26;;;;;;;;;11.20;8.60;;;;;7.77;49.09;98977.56;5027359;28;8853;-76
2024/01/05 05:28:55;;;;;;;;;10.00;7.60;;;;;7.46;48.65;98985.97;5027696;28;8856;-78
2024/01/05 05:31:24;;;;;;;;;9.40;9.20;;;;;7.57;48.96;98988.41;5027210;28;8985;-79
2024/01/05 05:33:55;;;;;;;;;8.40;7.00;;;;;7.42;49.51;98988.66;5010915;28;8903;-77
2024/01/05 05:36:24;;;;;;;;;9.00;8.00;;;;;7.39;49.74;98986.13;5027155;28;8973;-77
2024/01/05 05:38:53;;;;;;;;;7.80;7.20;;;;;7.53;49.53;98986.72;4994266;28;9789;-76
2024/01/05 05:41:22;;;;;;;;;10.00;8.80;;;;;7.29;48.92;98983.66;5010274;28;8988;-76
2024/01/05 05:43:52;;;;;;;;;8.60;8.60;;;;;7.26;49.36;98981.09;4994694;28;8849;-77
2024/01/05 05:46:22;;;;;;;;;9.40;9.40;;;;;7.19;50.58;98989.03;5026747;28;9031;-76
2024/01/05 05:48:51;;;;;;;;;9.20;9.20;;;;;7.24;50.40;98985.47;5100007;28;9628;-77
2024/01/05 05:51:21;;;;;;;;;10.20;8.20;;;;;7.27;49.53;98987.19;5069401;28;8843;-75
2024/01/05 05:53:50;;;;;;;;;9.00;8.80;;;;;7.14;50.15;98983.06;5051495;28;8843;-76
2024/01/05 05:56:19;;;;;;;;;13.80;11.60;;;;;7.03;50.00;98983.22;5069242;28;8862;-76
2024/01/05 05:58:49;;;;;;;;;11.40;11.20;;;;;6.93;50.16;98984.22;5067433;28;8862;-77
2024/01/05 06:01:18;;;;;;;;;13.20;11.20;;;;;6.96;50.45;98981.56;5068854;28;9040;-77
2024/01/05 06:03:47;;;;;;;;;15.00;13.40;;;;;7.05;50.42;98986.66;5068934;28;8839;-75
2024/01/05 06:06:18;;;;;;;;;10.00;10.00;;;;;7.24;49.70;98974.16;5069289;28;8866;-76
2024/01/05 06:08:51;;;;;;;;;17.40;15.80;;;;;7.39;48.89;98986.97;5071492;28;8943;-78
2024/01/05 06:11:20;;;;;;;;;14.20;10.00;;;;;7.39;48.67;98983.50;5072246;28;8843;-76
2024/01/05 06:13:50;;;;;;;;;13.80;13.00;;;;;7.29;48.14;98990.66;5068990;28;8936;-75
2024/01/05 06:16:18;;;;;;;;;13.80;13.00;;;;;7.38;49.80;98993.09;5067894;28;8970;-76
2024/01/05 06:18:48;;;;;;;;;13.80;13.40;;;;;7.32;48.85;98987.97;5067653;28;8886;-77
2024/01/05 06:21:17;;;;;;;;;28.00;24.20;;;;;7.42;48.85;98991.28;5068674;28;9596;-77
2024/01/05 06:23:46;;;;;;;;;14.80;12.60;;;;;7.57;48.68;98998.88;5068368;28;8842;-79
2024/01/05 06:26:16;;;;;;;;;21.40;19.60;;;;;7.77;48.23;99002.88;5068552;28;8866;-75
2024/01/05 06:28:45;;;;;;;;;20.20;16.60;;;;;7.66;47.65;99010.91;5068644;28;8846;-78
2024/01/05 06:31:15;;;;;;;;;26.80;17.40;;;;;7.79;48.41;99006.34;5068608;28;8885;-77
2024/01/05 06:33:44;;;;;;;;;21.60;15.40;;;;;7.86;48.53;99006.19;5068192;28;8878;-79
2024/01/05 06:36:13;;;;;;;;;16.20;15.80;;;;;7.81;47.54;99012.41;5068167;28;8854;-77
2024/01/05 06:38:42;;;;;;;;;12.80;12.80;;;;;7.43;48.35;99006.94;5068225;28;8830;-76
2024/01/05 06:41:11;;;;;;;;;15.60;13.00;;;;;7.54;47.64;99009.38;5032970;28;8866;-76
2024/01/05 06:43:41;;;;;;;;;16.00;15.00;;;;;7.60;48.30;99009.28;5068864;28;9596;-76
2024/01/05 06:46:10;;;;;;;;;14.80;14.00;;;;;7.57;47.96;99008.47;5069059;28;8869;-76
2024/01/05 06:48:39;;;;;;;;;21.00;19.40;;;;;7.58;47.51;99004.97;5068185;28;8889;-77
2024/01/05 06:51:09;;;;;;;;;22.20;20.20;;;;;7.57;47.42;99003.22;5068626;28;8854;-76
2024/01/05 06:53:38;;;;;;;;;17.00;17.00;;;;;7.60;47.95;99006.66;5068470;28;8944;-78
2024/01/05 06:56:08;;;;;;;;;16.00;14.80;;;;;7.66;47.60;99016.16;5069041;28;8963;-76
2024/01/05 06:58:37;;;;;;;;;16.00;16.00;;;;;7.71;48.66;99011.72;5072410;28;8830;-77
2024/01/05 07:01:08;;;;;;;;;19.80;16.80;;;;;7.77;46.56;99010.75;5071521;28;8884;-77
2024/01/05 07:03:37;;;;;;;;;17.40;17.40;;;;;7.86;46.65;99014.03;5068477;28;8858;-79
2024/01/05 07:06:06;;;;;;;;;17.40;14.60;;;;;7.78;47.04;99013.34;5068475;28;9009;-76
2024/01/05 07:08:36;;;;;;;;;17.80;14.80;;;;;7.93;46.69;99008.69;5067230;28;8835;-76
2024/01/05 07:11:05;;;;;;;;;14.60;10.20;;;;;7.76;46.25;99006.38;5049657;28;8897;-76
2024/01/05 07:13:34;;;;;;;;;17.20;15.60;;;;;7.88;46.44;99009.63;5068378;28;8866;-78
2024/01/05 07:16:03;;;;;;;;;17.60;17.00;;;;;7.90;45.90;99003.53;5068497;28;8870;-77
2024/01/05 07:18:34;;;;;;;;;11.20;11.20;;;;;7.83;46.02;99001.00;5068718;28;9010;-77
2024/01/05 07:21:04;;;;;;;;;13.40;11.40;;;;;7.93;45.39;98995.59;5067902;28;9596;-78
2024/01/05 07:23:33;;;;;;;;;13.20;13.20;;;;;8.01;45.53;98996.34;5033212;28;8858;-76
2024/01/05 07:26:02;;;;;;;;;10.60;10.20;;;;;7.97;45.33;98986.81;5068225;28;8927;-76
2024/01/05 07:28:31;;;;;;;;;12.80;12.80;;;;;8.04;45.55;98981.44;5067931;28;8951;-75
2024/01/05 07:31:04;;;;;;;;;8.40;8.40;;;;;8.06;44.21;98982.28;5067645;28;8862;-76
2024/01/05 07:33:42;;;;;;;;;12.20;11.40;;;;;8.10;44.09;98976.94;5066697;28;8865;-76
2024/01/05 07:36:11;;;;;;;;;10.60;10.60;;;;;8.38;43.59;98987.75;5066724;28;8838;-76
2024/01/05 07:38:40;;;;;;;;;10.80;9.60;;;;;8.41;42.99;98980.69;5067626;28;8835;-77
2024/01/05 07:41:15;;;;;;;;;5.00;5.00;;;;;8.28;43.30;98984.44;5067905;28;8859;-76
2024/01/05 07:43:44;;;;;;;;;12.00;10.00;;;;;8.32;43.05;98980.03;5066440;28;8834;-77
2024/01/05 07:46:13;;;;;;;;;12.00;11.00;;;;;8.50;42.22;98976.19;5067795;28;8866;-76
2024/01/05 07:48:44;;;;;;;;;9.80;9.20;;;;;8.74;41.45;98972.13;5072717;28;8877;-76
2024/01/05 07:51:14;;;;;;;;;9.00;6.80;;;;;8.90;41.80;98970.03;5075685;28;9043;-76
2024/01/05 07:53:44;;;;;;;;;16.20;14.40;;;;;9.02;41.93;98967.13;5036198;28;9651;-77
2024/01/05 07:56:13;;;;;;;;;25.60;22.80;;;;;9.10;41.54;98962.56;5071127;28;8889;-76
2024/01/05 07:58:42;;;;;;;;;13.00;12.60;;;;;9.20;41.32;98958.81;5071068;28;8842;-75
2024/01/05 08:01:15;;;;;;;;;13.60;12.20;;;;;9.39;40.88;98958.34;5070922;28;8854;-75
2024/01/05 08:03:47;;;;;;;;;13.20;13.20;;;;;9.33;40.46;98959.38;5071102;28;8835;-75
2024/01/05 08:06:17;;;;;;;;;15.60;13.80;;;;;9.37;40.36;98958.38;5069461;28;9071;-75
2024/01/05 08:08:48;;;;;;;;;6.40;6.20;;;;;9.46;39.39;98957.31;5071067;28;8863;-75
2024/01/05 08:11:18;;;;;;;;;14.00;12.80;;;;;9.36;40.03;98959.28;5071069;28;8854;-76
2024/01/05 08:13:47;;;;;;;;;15.20;15.20;;;;;9.38;39.13;98967.97;5070609;28;8854;-76
2024/01/05 08:16:16;;;;;;;;;21.00;17.40;;;;;9.39;39.84;98963.59;5070703;28;8858;-77
2024/01/05 08:18:47;;;;;;;;;16.60;16.60;;;;;9.59;39.10;98957.84;5070540;28;8869;-75
2024/01/05 08:21:16;;;;;;;;;18.20;15.60;;;;;9.83;39.61;98961.59;5086018;28;8900;-77
2024/01/05 08:23:45;;;;;;;;;18.20;17.80;;;;;9.95;38.72;98969.16;5070657;28;8859;-76
2024/01/05 08:26:18;;;;;;;;;16.40;15.20;;;;;9.98;38.97;98973.44;5070349;28;8874;-76
2024/01/05 08:28:47;;;;;;;;;14.40;13.80;;;;;9.92;38.67;98963.97;5068912;28;8895;-77
2024/01/05 08:31:17;;;;;;;;;19.40;18.20;;;;;10.05;39.41;98971.47;5070230;28;8892;-76
2024/01/05 08:33:48;;;;;;;;;17.80;17.60;;;;;10.05;38.98;98964.50;5052362;28;8854;-77
2024/01/05 08:36:17;;;;;;;;;16.00;14.60;;;;;10.28;38.73;98965.59;5071039;28;8874;-75
2024/01/05 08:38:47;;;;;;;;;15.60;15.00;;;;;10.12;38.88;98973.03;5023779;28;8842;-74
2024/01/05 08:41:16;;;;;;;;;21.40;20.80;;;;;9.85;39.50;98969.44;5072488;28;8851;-76
2024/01/05 08:43:45;;;;;;;;;17.60;15.80;;;;;10.13;38.16;98972.16;5070241;28;8937;-79
2024/01/05 08:46:14;;;;;;;;;16.20;16.20;;;;;10.30;38.70;98977.78;5070053;28;8889;-76
2024/01/05 08:48:45;;;;;;;;;17.60;16.20;;;;;10.33;38.14;98972.44;5070265;28;9035;-76
2024/01/05 08:51:15;;;;;;;;;18.80;14.80;;;;;10.54;37.72;98978.81;5070015;28;8874;-76
2024/01/05 08:53:44;;;;;;;;;20.80;20.20;;;;;10.65;38.99;98980.25;5068581;28;8892;-76
2024/01/05 08:56:14;;;;;;;;;17.60;15.60;;;;;10.62;36.69;98985.63;5050979;28;8881;-76
2024/01/05 08:58:43;;;;;;;;;16.40;16.40;;;;;10.71;36.87;98991.47;5018222;28;9796;-77
2024/01/05 09:01:12;;;;;;;;;17.20;16.40;;;;;10.85;36.80;98985.78;5069691;28;8880;-76
2024/01/05 09:03:41;;;;;;;;;18.20;17.40;;;;;10.93;37.71;98986.41;5069953;28;8847;-76
2024/01/05 09:06:10;;;;;;;;;17.40;17.00;;;;;10.95;37.28;98982.00;5068563;28;8880;-76
2024/01/05 09:08:41;;;;;;;;;13.40;13.40;;;;;11.13;38.12;98977.03;5068258;28;8872;-77
2024/01/05 09:11:11;;;;;;;;;16.20;11.60;;;;;11.21;36.73;98972.38;5069895;28;8875;-77
2024/01/05 09:13:40;;;;;;;;;16.20;14.00;;;;;11.15;35.42;98976.06;5034984;28;8839;-76
2024/01/05 09:16:09;;;;;;;;;18.40;18.40;;;;;11.26;36.22;98980.13;5027069;28;8981;-77
2024/01/05 09:18:39;;;;;;;;;14.80;13.20;;;;;11.33;35.64;98974.63;5026495;28;8935;-76
2024/01/05 09:21:08;;;;;;;;;12.00;11.40;;;;;11.45;36.95;98973.34;5009803;28;8979;-75
2024/01/05 09:23:37;;;;;;;;;16.00;15.00;;;;;11.62;35.54;98979.81;5026926;28;9688;-77
2024/01/05 09:26:13;;;;;;;;;13.80;13.00;;;;;11.54;35.69;98978.31;5026997;28;9634;-76
2024/01/05 09:28:43;;;;;;;;;13.40;13.20;;;;;11.47;34.05;98983.81;4994573;28;8882;-75
2024/01/05 09:31:13;;;;;;;;;16.00;13.20;;;;;11.61;35.12;98989.47;5026845;28;8982;-75
2024/01/05 09:33:43;;;;;;;;;14.00;12.20;;;;;11.77;35.71;98984.53;4978273;28;8889;-77
2024/01/05 09:36:12;;;;;;;;;14.00;14.00;;;;;11.90;35.26;98980.59;5026728;28;8942;-76
2024/01/05 09:39:05;;;;;;;;;11.40;11.40;;;;;11.76;34.28;98978.41;4999675;28;8999;-75
2024/01/05 09:41:55;;;;;;;;;14.60;12.00;;;;;11.91;34.33;98976.19;5013866;28;8873;-76
2024/01/05 09:44:46;;;;;;;;;9.20;8.80;;;;;11.86;34.94;98964.94;5015089;28;8841;-78
2024/01/05 09:47:35;;;;;;;;;11.60;10.40;;;;;12.02;34.94;98968.75;5018072;28;8870;-76
2024/01/05 09:50:26;;;;;;;;;9.80;9.80;;;;;11.85;34.82;98965.88;5033756;28;8877;-75
2024/01/05 09:53:17;;;;;;;;;16.40;15.60;;;;;12.05;35.13;98967.78;5005918;28;8974;-76
2024/01/05 09:56:07;;;;;;;;;13.40;13.00;;;;;12.20;34.78;98963.72;5032551;28;8941;-77
2024/01/05 09:58:57;;;;;;;;;12.60;12.60;;;;;12.32;33.07;98971.19;5032519;28;8854;-76
2024/01/05 10:01:49;;;;;;;;;9.00;9.00;;;;;12.31;32.34;98969.44;5032202;28;8862;-77
2024/01/05 10:04:38;;;;;;;;;9.80;9.80;;;;;12.27;33.24;98973.13;5031994;28;8866;-76
2024/01/05 10:07:27;;;;;;;;;13.00;9.60;;;;;12.20;33.79;98961.09;5005315;28;8842;-76
2024/01/05 10:10:16;;;;;;;;;11.00;9.60;;;;;12.32;33.18;98956.22;5031686;28;8987;-77
2024/01/05 10:13:06;;;;;;;;;11.20;10.00;;;;;12.08;32.89;98960.63;5031513;28;9009;-78
2024/01/05 10:15:59;;;;;;;;;5.40;5.40;;;;;11.86;33.10;98957.03;5031710;28;8851;-77
2024/01/05 10:18:49;;;;;;;;;7.00;5.40;;;;;11.98;33.43;98958.41;5032470;28;8890;-75
2024/01/05 10:21:38;;;;;;;;;14.40;13.60;;;;;12.06;34.02;98954.56;5032011;28;8854;-76
2024/01/05 10:24:29;;;;;;;;;10.20;9.60;;;;;12.23;32.48;98953.09;5038846;28;8854;-77
2024/01/05 10:27:18;;;;;;;;;7.20;7.20;;;;;12.08;32.91;98947.44;5067113;28;8850;-77
2024/01/05 10:30:10;;;;;;;;;8.40;7.40;;;;;12.07;31.96;98944.88;5067291;28;8936;-75
2024/01/05 10:33:07;;;;;;;;;8.00;7.40;;;;;12.22;31.73;98944.31;5013343;28;9004;-75
2024/01/05 10:36:06;;;;;;;;;13.40;10.40;;;;;12.54;32.76;98931.66;5068375;28;8846;-76
2024/01/05 10:38:56;;;;;;;;;8.00;8.00;;;;;12.45;31.83;98927.63;5066967;28;8862;-77
2024/01/05 10:41:46;;;;;;;;;8.20;7.60;;;;;12.51;30.73;98929.19;5066966;28;8872;-75
2024/01/05 10:44:36;;;;;;;;;7.60;7.60;;;;;12.80;31.13;98920.09;5066776;28;8889;-76
2024/01/05 10:47:26;;;;;;;;;3.00;3.00;;;;;12.72;31.75;98928.31;5067067;28;8846;-76
2024/01/05 10:50:17;;;;;;;;;12.40;11.00;;;;;13.05;31.62;98920.00;5066867;28;8879;-76
2024/01/05 10:53:08;;;;;;;;;11.00;9.80;;;;;12.89;31.10;98918.91;5066724;28;8863;-76
2024/01/05 10:55:59;;;;;;;;;18.40;16.80;;;;;13.27;31.48;98919.09;5066943;28;8881;-77
2024/01/05 10:58:49;;;;;;;;;6.80;6.80;;;;;13.17;30.08;98913.34;5066723;28;8876;-75
2024/01/05 11:01:39;;;;;;;;;8.40;7.40;;;;;13.14;31.07;98912.63;5066724;28;8866;-76
2024/01/05 11:04:30;;;;;;;;;7.60;6.00;;;;;13.21;30.49;98903.53;5066880;28;9623;-76
2024/01/05 11:07:24;;;;;;;;;9.40;8.40;;;;;13.40;30.69;98903.59;5066668;28;8977;-76
2024/01/05 11:10:28;;;;;;;;;11.80;10.20;;;;;13.37;29.67;98898.44;5053162;28;8838;-76
2024/01/05 11:13:36;;;;;;;;;4.80;4.60;;;;;13.47;29.54;98905.91;5066672;28;8874;-76
2024/01/05 11:16:59;;;;;;;;;8.40;8.40;;;;;13.21;29.27;98900.91;5066688;28;8858;-77
2024/01/05 11:20:00;;;;;;;;;12.20;11.60;;;;;13.48;30.33;98898.84;4991845;28;8870;-76
2024/01/05 11:22:51;;;;;;;;;9.60;9.60;;;;;13.60;31.18;98886.88;4993777;28;8866;-76
2024/01/05 11:25:41;;;;;;;;;9.60;9.60;;;;;13.78;30.80;98887.88;4996262;28;8994;-75
2024/01/05 11:28:34;;;;;;;;;17.00;16.00;;;;;13.64;29.71;98885.84;4955555;28;8886;-75
2024/01/05 11:31:55;;;;;;;;;15.40;13.60;;;;;13.86;30.34;98880.47;4995292;28;8878;-77
2024/01/05 11:34:45;;;;;;;;;13.00;12.20;;;;;13.88;30.28;98882.16;4995235;28;8862;-74
2024/01/05 11:37:34;;;;;;;;;10.80;9.60;;;;;14.05;29.57;98880.50;4995520;28;8995;-77
2024/01/05 11:40:29;;;;;;;;;15.60;14.60;;;;;14.26;30.54;98871.59;4995174;28;8874;-76
2024/01/05 11:43:35;;;;;;;;;14.60;14.40;;;;;14.51;31.19;98880.13;4995123;28;8881;-76
2024/01/05 11:46:50;;;;;;;;;3.80;3.80;;;;;14.59;30.33;98873.53;4995292;28;8904;-76
2024/01/05 11:49:41;;;;;;;;;16.00;14.20;;;;;14.52;30.18;98884.50;4995146;28;8992;-76
2024/01/05 11:52:31;;;;;;;;;20.00;17.20;;;;;14.60;30.84;98884.97;4995220;28;8874;-76
2024/01/05 11:55:20;;;;;;;;;19.20;17.80;;;;;14.67;29.67;98881.94;4982987;28;8893;-77
2024/01/05 11:58:16;;;;;;;;;18.40;17.60;;;;;14.73;29.01;98877.34;5070172;28;8880;-75
2024/01/05 12:01:07;;;;;;;;;22.00;19.80;;;;;14.61;27.89;98884.91;5070338;28;8878;-74
2024/01/05 12:03:57;;;;;;;;;14.60;13.40;;;;;14.35;27.43;98898.50;5028671;28;8854;-77
2024/01/05 12:06:51;;;;;;;;;12.80;10.40;;;;;14.59;29.69;98888.56;5069651;28;8842;-77
2024/01/05 12:09:41;;;;;;;;;15.20;15.20;;;;;14.64;29.85;98883.88;5029061;28;9075;-75
2024/01/05 12:12:30;;;;;;;;;20.20;17.80;;;;;14.71;29.59;98880.00;5071031;28;8866;-76